Time;durP1;ratioP1;P1;durP2;ratioP2;P2;SDS_P1;SDS_P2;PMS_P1;PMS_P2;Temp;Humidity;BMP_temperature;BMP_pressure;BME280_temperature;BME280_humidity;BME280_pressure;Samples;Min_cycle;Max_cycle;Signal;HPM_P1;HPM_P2
2022/07/13 00:07:11;;;;;;;4.30;1.42;;;;;;;16.31;50.17;100557.50;30991909;28;96558;-60
2022/07/13 00:22:12;;;;;;;2.13;1.20;;;;;;;16.22;51.26;100543.38;30989340;28;99674;-60
2022/07/13 00:37:12;;;;;;;2.55;1.20;;;;;;;16.15;52.14;100539.84;30987646;28;97344;-60
2022/07/13 00:52:12;;;;;;;2.83;1.20;;;;;;;16.04;52.90;100530.47;30985875;28;96669;-60
2022/07/13 01:07:13;;;;;;;5.32;2.50;;;;;;;15.76;53.36;100523.25;30983756;28;97316;-60
2022/07/13 01:22:18;;;;;;;3.50;1.10;;;;;;;15.44;54.13;100519.28;30982313;28;97426;-61
2022/07/13 01:37:19;;;;;;;1.80;1.27;;;;;;;15.22;55.80;100501.34;30981300;28;96668;-59
2022/07/13 01:52:19;;;;;;;2.87;1.17;;;;;;;15.04;56.15;100498.31;30980592;28;96814;-63
2022/07/13 02:07:21;;;;;;;1.58;1.20;;;;;;;14.90;57.29;100502.72;30980030;28;97106;-59
2022/07/13 02:22:21;;;;;;;2.37;1.10;;;;;;;14.74;58.30;100498.41;30977519;28;96616;-60
2022/07/13 02:37:22;;;;;;;3.10;1.35;;;;;;;14.59;59.27;100492.25;30975680;28;97253;-60
2022/07/13 02:52:22;;;;;;;3.63;1.60;;;;;;;14.44;59.53;100490.41;30975372;28;106675;-60
2022/07/13 03:07:22;;;;;;;2.53;1.55;;;;;;;14.34;60.53;100500.63;30973855;28;96921;-59
2022/07/13 03:22:23;;;;;;;2.55;1.42;;;;;;;14.54;61.06;100490.97;30972724;28;97316;-60
2022/07/13 03:37:23;;;;;;;2.63;1.85;;;;;;;15.10;60.75;100485.97;30969961;28;97344;-60
2022/07/13 03:52:23;;;;;;;3.10;1.55;;;;;;;15.67;60.26;100481.44;30947829;28;97321;-62
2022/07/13 04:07:24;;;;;;;2.40;1.50;;;;;;;16.11;59.37;100468.69;30864809;28;97251;-59
2022/07/13 04:22:24;;;;;;;3.30;1.30;;;;;;;16.48;58.85;100477.31;30858200;28;96957;-61
2022/07/13 04:37:24;;;;;;;4.40;1.95;;;;;;;16.96;57.88;100484.50;30847702;28;97580;-61
2022/07/13 04:52:25;;;;;;;3.90;1.40;;;;;;;17.50;57.19;100479.94;30858171;28;116389;-61
2022/07/13 05:07:25;;;;;;;6.28;1.40;;;;;;;18.45;56.15;100487.56;30929736;28;96909;-61
2022/07/13 05:22:25;;;;;;;2.60;1.55;;;;;;;19.49;54.30;100484.59;30980218;28;96847;-61
2022/07/13 05:37:26;;;;;;;4.90;1.58;;;;;;;20.58;52.32;100473.13;30959625;28;106766;-61
2022/07/13 05:52:26;;;;;;;1.85;0.90;;;;;;;21.07;50.30;100488.50;30975631;28;115410;-62
2022/07/13 06:07:27;;;;;;;3.60;1.42;;;;;;;20.89;50.32;100492.94;30914127;28;97349;-60
2022/07/13 06:22:27;;;;;;;4.30;1.20;;;;;;;21.19;50.43;100505.59;30853824;28;96672;-61
2022/07/13 06:37:27;;;;;;;2.28;1.10;;;;;;;22.22;48.94;100504.41;30851457;28;104510;-61
2022/07/13 06:52:28;;;;;;;5.20;1.17;;;;;;;22.61;48.09;100513.63;30850781;28;97078;-61
2022/07/13 07:07:28;;;;;;;3.97;1.20;;;;;;;23.19;47.11;100519.03;30848467;28;96750;-60
2022/07/13 07:22:28;;;;;;;6.50;1.60;;;;;;;24.04;46.36;100504.53;30856320;28;97447;-61
2022/07/13 07:37:28;;;;;;;;;;;;;;;25.22;44.06;100502.22;30865848;28;97483;-61
2022/07/13 07:52:29;;;;;;;4.97;1.03;;;;;;;26.31;41.42;100489.00;30866492;28;96757;-61
2022/07/13 08:07:30;;;;;;;1.63;0.80;;;;;;;27.96;38.46;100486.25;30865174;28;96721;-62
2022/07/13 08:22:30;;;;;;;4.05;0.90;;;;;;;28.66;35.97;100479.91;30863406;28;97509;-62
2022/07/13 08:52:50;;;;;;;1.20;0.90;;;;;;;27.58;36.18;100502.22;30861763;28;97050;-62
2022/07/13 09:08:08;;;;;;;3.85;1.00;;;;;;;28.68;34.67;100480.44;30860944;28;97428;-62
2022/07/13 09:23:08;;;;;;;2.00;0.80;;;;;;;29.78;31.82;100465.44;30860554;28;96796;-61
2022/07/13 09:38:29;;;;;;;1.38;0.60;;;;;;;29.95;29.52;100473.25;30855583;28;96829;-61
2022/07/13 09:53:34;;;;;;;1.07;0.73;;;;;;;30.89;27.65;100465.31;30855840;28;96708;-62
2022/07/13 10:08:39;;;;;;;2.00;0.70;;;;;;;31.89;27.99;100466.81;30853673;28;96991;-61
2022/07/13 10:23:40;;;;;;;4.70;0.87;;;;;;;32.56;26.42;100459.88;30853611;28;96790;-62
2022/07/13 10:38:42;;;;;;;1.27;0.63;;;;;;;30.77;26.10;100438.31;30853511;28;96806;-61
2022/07/13 10:53:45;;;;;;;1.73;0.80;;;;;;;31.45;25.63;100418.69;30859806;28;97764;-61
2022/07/13 11:08:45;;;;;;;1.87;0.50;;;;;;;33.99;22.66;100420.53;30873229;28;96716;-62
2022/07/13 11:39:21;;;;;;;1.77;0.70;;;;;;;35.46;20.94;100381.06;30865831;28;96911;-64
2022/07/13 11:54:22;;;;;;;2.43;1.07;;;;;;;35.34;20.54;100357.69;30866923;28;97417;-61
2022/07/13 12:09:23;;;;;;;4.53;2.73;;;;;;;33.92;21.63;100368.50;30864766;28;96716;-61
2022/07/13 12:24:23;;;;;;;3.97;0.60;;;;;;;32.99;22.41;100349.03;30864616;28;104554;-63
2022/07/13 12:39:35;;;;;;;3.80;0.90;;;;;;;32.39;22.48;100347.53;30862354;28;96746;-60
2022/07/13 12:54:42;;;;;;;3.30;0.70;;;;;;;33.45;21.78;100315.75;30860558;28;96864;-62
2022/07/13 13:09:42;;;;;;;4.23;0.70;;;;;;;33.48;21.90;100298.56;30860636;28;96756;-60
2022/07/13 13:24:43;;;;;;;2.53;1.13;;;;;;;33.77;22.23;100278.63;30858529;28;97065;-60
2022/07/13 13:39:44;;;;;;;13.68;9.15;;;;;;;33.32;22.29;100287.16;30861058;28;97523;-62
2022/07/13 13:54:44;;;;;;;9.95;5.03;;;;;;;31.38;22.45;100248.44;30976198;28;96722;-62
2022/07/13 14:09:44;;;;;;;3.15;1.38;;;;;;;31.46;22.58;100247.72;30972938;28;97370;-67
2022/07/13 14:24:45;;;;;;;3.80;1.10;;;;;;;31.34;22.37;100237.25;30965775;28;97499;-62
2022/07/13 14:39:45;;;;;;;1.70;1.10;;;;;;;30.80;23.56;100211.41;30876336;28;96972;-67
2022/07/13 14:54:46;;;;;;;3.75;1.10;;;;;;;29.87;24.89;100210.31;30850995;28;96730;-62
2022/07/13 15:09:46;;;;;;;3.33;1.10;;;;;;;29.85;25.44;100209.78;30838788;28;97154;-62
2022/07/13 15:24:48;;;;;;;1.80;1.10;;;;;;;29.73;26.18;100190.19;30848645;28;96647;-61
2022/07/13 15:39:48;;;;;;;1.23;0.65;;;;;;;29.67;25.29;100189.44;30844006;28;97600;-63
2022/07/13 15:54:48;;;;;;;1.33;0.77;;;;;;;29.03;26.20;100174.16;30864696;28;97131;-61
2022/07/13 16:09:49;;;;;;;2.63;0.63;;;;;;;29.18;25.01;100169.56;30865502;28;119656;-62
2022/07/13 16:24:49;;;;;;;5.15;1.25;;;;;;;28.57;26.07;100182.06;30861933;28;97124;-61
2022/07/13 16:39:49;;;;;;;4.55;1.35;;;;;;;28.41;27.37;100165.00;30859428;28;96754;-60
2022/07/13 16:54:50;;;;;;;3.10;1.00;;;;;;;27.96;27.56;100154.19;30859940;28;96715;-61
2022/07/13 17:09:51;;;;;;;2.42;1.30;;;;;;;27.69;27.36;100161.78;30851438;28;97632;-60
2022/07/13 17:24:53;;;;;;;3.43;1.00;;;;;;;27.41;27.87;100154.34;30845090;28;96965;-62
2022/07/13 17:39:53;;;;;;;4.70;0.90;;;;;;;27.15;28.48;100159.94;30851825;28;96819;-61
2022/07/13 17:54:54;;;;;;;2.22;1.00;;;;;;;26.88;28.71;100152.13;30855460;28;97022;-61
2022/07/13 18:09:55;;;;;;;4.55;1.10;;;;;;;26.51;29.83;100156.88;30854212;28;96608;-61
2022/07/13 18:24:58;;;;;;;4.15;1.17;;;;;;;26.26;30.69;100155.84;30854116;28;96789;-60
2022/07/13 18:39:58;;;;;;;2.60;0.90;;;;;;;25.99;31.07;100148.75;30852975;28;97045;-61
2022/07/13 18:54:58;;;;;;;9.23;1.58;;;;;;;25.76;31.55;100150.13;30852952;28;96661;-60
2022/07/13 19:09:59;;;;;;;2.67;1.20;;;;;;;25.55;32.35;100154.75;30851715;28;96791;-60
2022/07/13 19:40:18;;;;;;;2.27;1.10;;;;;;;25.05;33.87;100148.06;30993585;28;97145;-61
2022/07/13 19:55:18;;;;;;;4.68;1.63;;;;;;;24.67;34.89;100138.13;30990936;28;96772;-61
2022/07/13 20:10:19;;;;;;;2.67;1.50;;;;;;;24.39;35.82;100141.22;30990620;28;96801;-61
2022/07/13 20:25:26;;;;;;;3.78;1.30;;;;;;;24.11;36.45;100133.16;30988217;28;100696;-61
2022/07/13 20:40:29;;;;;;;2.07;1.30;;;;;;;23.64;37.54;100136.56;30978601;28;97136;-60
2022/07/13 20:55:30;;;;;;;;;;;;;;;23.38;38.60;100121.94;30984877;28;96812;-60
2022/07/13 21:10:30;;;;;;;4.70;1.63;;;;;;;22.98;39.66;100124.75;30985802;28;96768;-61
2022/07/13 21:40:50;;;;;;;3.20;1.50;;;;;;;22.87;40.59;100100.44;30982267;28;96772;-62
2022/07/13 21:55:51;;;;;;;3.30;1.57;;;;;;;22.71;41.21;100094.03;30982039;28;96996;-61
2022/07/13 22:11:28;;;;;;;6.20;1.70;;;;;;;22.63;41.47;100090.66;30980105;28;105877;-61
2022/07/13 22:27:06;;;;;;;5.70;1.90;;;;;;;22.51;41.88;100075.56;30978461;28;97242;-61
2022/07/13 22:42:43;;;;;;;4.27;1.50;;;;;;;22.36;42.23;100068.88;30972836;28;97080;-69
2022/07/13 22:58:21;;;;;;;2.27;1.37;;;;;;;22.30;42.71;100064.44;30974641;28;97421;-61
2022/07/13 23:13:59;;;;;;;4.80;1.73;;;;;;;22.28;42.69;100061.97;30975267;28;96750;-62
2022/07/13 23:28:59;;;;;;;4.50;1.50;;;;;;;22.34;42.39;100064.75;30973958;28;97142;-61
2022/07/13 23:44:01;;;;;;;4.73;1.60;;;;;;;22.81;41.13;100056.09;30972130;28;106878;-61
2022/07/13 23:59:01;;;;;;;3.80;1.53;;;;;;;22.82;40.74;100039.56;30974863;28;96791;-60
